Shelby, Michigan
Current Conditions -  °F | °C
As of 12:14 AM on Friday 31 Oct 2014 (Local Time) from KFFX Reporting Station
Overcast Overcast  
Wind Chill: 42°   Ceiling: 7000
Heat Index: 42°   Visibility: 10mi
Dew Point: 38°   Wind: 3mph
Humidity: 83%   Direction: 210°SSW
Pressure: 29.96"   Gusts: NA
Location:  43.61°N, 86.36°W
Report Text: KFFX 310414Z AUTO 21003KT 10SM SCT038 SCT060 OVC070 06/03 A2996 RMK AO2 T00580031
Loading
Personal Weather Stations






























Interactive Weather Map
Tropical Storm Tracking
New forecast layout! Learn more

10-Day Weather Forecast

Advertisements
Track Severe Weather on mobile